Погода Гуероуна неделю

Трарза, Мавритания

13 - 19 июля
  • 13июля
    Сегодня
    +27°
    +35°
    Ясно и безоблачно
    ВремяПогодаТемператураВлажностьДавлениеВетер, м/сВероятность осадков
    00:00Ясно и безоблачно+31°C82 %753 мм3.5 м/с2 %
    03:00Ясно и безоблачно+29°C77 %752 мм3.3 м/с2 %
    06:00Ясно и безоблачно+28°C82 %752 мм3.8 м/с2 %
    09:00Ясно и безоблачно+27°C78 %753 мм4.1 м/с2 %
    12:00Ясно и безоблачно+30°C67 %753 мм3.1 м/с2 %
    15:00Ясно и безоблачно+33°C52 %751 мм4.2 м/с2 %
    18:00Ясно и безоблачно+35°C52 %750 мм2.9 м/с2 %
    21:00Ясно и безоблачно+32°C69 %751 мм2.5 м/с2 %
  • 14июля
    Воскресенье
    +28°
    +36°
    Небольшая облачность
    ВремяПогодаТемператураВлажностьДавлениеВетер, м/сВероятность осадков
    00:00Ясно и безоблачно+31°C67 %752 мм3.4 м/с2 %
    03:00Ясно и безоблачно+30°C70 %751 мм5.0 м/с2 %
    06:00Ясно и безоблачно+28°C77 %752 мм3.0 м/с2 %
    09:00Облачно с прояснениями+28°C68 %753 мм3.0 м/с2 %
    12:00Облачно с прояснениями+31°C58 %753 мм3.0 м/с2 %
    15:00Небольшая облачность+34°C47 %751 мм3.2 м/с2 %
    18:00Практически безоблачно+36°C44 %750 мм2.6 м/с2 %
    21:00Облачно с прояснениями+34°C54 %752 мм4.3 м/с2 %
  • 15июля
    Понедельник
    +29°
    +37°
    Облачно с прояснениями
    ВремяПогодаТемператураВлажностьДавлениеВетер, м/сВероятность осадков
    00:00Ясно и безоблачно+33°C64 %754 мм5.1 м/с2 %
    03:00Ясно и безоблачно+31°C72 %753 мм6.4 м/с2 %
    06:00Ясно и безоблачно+29°C79 %754 мм3.5 м/с2 %
    09:00Облачно с прояснениями+29°C63 %755 мм3.5 м/с3 %
    12:00Облачно с прояснениями+32°C53 %754 мм2.7 м/с2 %
    15:00Облачно с прояснениями+35°C39 %752 мм0.5 м/с2 %
    18:00Небольшая облачность+37°C38 %752 мм3.7 м/с2 %
    21:00Ясно и безоблачно+35°C45 %753 мм4.1 м/с2 %
  • 16июля
    Вторник
    +29°
    +37°
    Небольшая облачность
    ВремяПогодаТемператураВлажностьДавлениеВетер, м/сВероятность осадков
    00:00Ясно и безоблачно+34°C57 %754 мм5.5 м/с4 %
    03:00Ясно и безоблачно+33°C60 %753 мм5.8 м/с2 %
    06:00Ясно и безоблачно+30°C64 %754 мм4.8 м/с3 %
    09:00Небольшая облачность+29°C60 %755 мм5.5 м/с2 %
    12:00Небольшая облачность+34°C46 %755 мм5.2 м/с3 %
    15:00Небольшая облачность+36°C36 %752 мм3.7 м/с2 %
    18:00Облачно с прояснениями+37°C33 %751 мм4.4 м/с4 %
    21:00Практически безоблачно+36°C40 %752 мм5.6 м/с5 %
  • 17июля
    Среда
    +29°
    +37°
    Ясно и безоблачно
    ВремяПогодаТемператураВлажностьДавлениеВетер, м/сВероятность осадков
    00:00Практически безоблачно+37°C45 %753 мм3.4 м/с10 %
    03:00Облачно с прояснениями+33°C55 %753 мм4.4 м/с16 %
    06:00Ясно и безоблачно+31°C62 %754 мм4.2 м/с12 %
    09:00Ясно и безоблачно+29°C59 %754 мм4.9 м/с8 %
    12:00Ясно и безоблачно+33°C45 %753 мм5.1 м/с5 %
    15:00Ясно и безоблачно+35°C36 %751 мм5.3 м/с2 %
    18:00Ясно и безоблачно+36°C35 %750 мм5.6 м/с2 %
    21:00Ясно и безоблачно+36°C38 %751 мм4.4 м/с3 %
Мы используем cookies
Соглашаюсь